createdAt,value
2022-10-23T00:01:14.120Z,6.03
2022-10-23T00:03:42.286Z,6.30
2022-10-23T00:06:10.866Z,6.25
2022-10-23T00:08:39.044Z,5.68
2022-10-23T00:11:08.694Z,5.67
2022-10-23T00:13:40.142Z,6.07
2022-10-23T00:16:09.315Z,6.13
2022-10-23T00:18:38.415Z,6.03
2022-10-23T00:21:07.660Z,6.10
2022-10-23T00:23:35.589Z,6.43
2022-10-23T00:26:03.984Z,6.13
2022-10-23T00:28:32.147Z,6.38
2022-10-23T00:31:04.448Z,6.00
2022-10-23T00:33:33.721Z,6.30
2022-10-23T00:36:01.548Z,6.57
2022-10-23T00:38:29.480Z,6.10
2022-10-23T00:40:57.346Z,6.22
2022-10-23T00:43:28.924Z,6.63
2022-10-23T00:45:56.930Z,6.35
2022-10-23T00:48:27.261Z,6.10
2022-10-23T00:50:55.903Z,6.68
2022-10-23T00:53:25.972Z,6.78
2022-10-23T00:55:57.609Z,5.97
2022-10-23T00:58:26.076Z,6.35
2022-10-23T01:00:56.439Z,6.50
2022-10-23T01:03:29.082Z,5.97
2022-10-23T01:06:12.839Z,6.88
2022-10-23T01:08:48.432Z,5.53
2022-10-23T01:11:20.032Z,6.50
2022-10-23T01:14:00.598Z,5.83
2022-10-23T01:16:37.908Z,6.57
2022-10-23T01:19:17.687Z,6.30
2022-10-23T01:21:55.324Z,6.75
2022-10-23T01:24:34.074Z,6.38
2022-10-23T01:27:21.972Z,6.50
2022-10-23T01:29:59.172Z,6.70
2022-10-23T01:32:40.285Z,6.18
2022-10-23T01:35:14.305Z,6.00
2022-10-23T01:37:45.896Z,6.43
2022-10-23T01:40:24.107Z,5.73
2022-10-23T01:42:56.391Z,6.43
2022-10-23T01:45:33.361Z,6.32
2022-10-23T01:48:03.858Z,6.75
2022-10-23T01:50:33.247Z,6.82
2022-10-23T01:53:04.570Z,6.30
2022-10-23T01:55:33.985Z,6.35
2022-10-23T01:58:08.460Z,6.18
2022-10-23T02:00:42.423Z,6.38
2022-10-23T02:03:13.167Z,6.63
2022-10-23T02:05:40.998Z,6.03
2022-10-23T02:08:08.941Z,6.60
2022-10-23T02:10:45.784Z,6.40
2022-10-23T02:13:20.153Z,6.95
2022-10-23T02:15:50.321Z,6.50
2022-10-23T02:18:34.654Z,7.17
2022-10-23T02:21:08.710Z,7.20
2022-10-23T02:23:41.186Z,7.97
2022-10-23T02:26:16.659Z,7.65
2022-10-23T02:28:53.044Z,8.43
2022-10-23T02:31:23.091Z,8.40
2022-10-23T02:33:51.324Z,9.07
2022-10-23T02:36:20.548Z,9.40
2022-10-23T02:38:48.393Z,8.80
2022-10-23T02:41:26.391Z,8.77
2022-10-23T02:44:09.267Z,9.63
2022-10-23T02:46:50.895Z,9.02
2022-10-23T02:49:25.638Z,9.90
2022-10-23T02:52:06.460Z,9.75
2022-10-23T02:55:00.356Z,9.55
2022-10-23T02:57:34.867Z,9.43
2022-10-23T03:00:12.057Z,9.15
2022-10-23T03:02:45.430Z,9.40
2022-10-23T03:05:20.565Z,9.35
2022-10-23T03:07:49.890Z,9.98
2022-10-23T03:10:19.261Z,9.97
2022-10-23T03:12:48.774Z,9.50
2022-10-23T03:15:19.278Z,9.30
2022-10-23T03:17:49.444Z,9.48
2022-10-23T03:20:17.803Z,9.80
2022-10-23T03:22:46.511Z,9.80
2022-10-23T03:25:14.372Z,9.32
2022-10-23T03:27:42.224Z,10.10
2022-10-23T03:30:13.262Z,9.25
2022-10-23T03:32:43.497Z,9.10
2022-10-23T03:35:11.723Z,9.10
2022-10-23T03:37:39.725Z,9.07
2022-10-23T03:40:09.280Z,9.43
2022-10-23T03:42:37.142Z,8.70
2022-10-23T03:45:05.506Z,9.57
2022-10-23T03:47:35.262Z,9.00
2022-10-23T03:50:05.157Z,8.32
2022-10-23T03:52:34.901Z,9.00
2022-10-23T03:55:02.663Z,8.82
2022-10-23T03:57:30.467Z,9.02
2022-10-23T03:59:58.216Z,8.40
2022-10-23T04:02:30.769Z,9.18
2022-10-23T04:04:58.779Z,9.00
2022-10-23T04:07:28.084Z,8.50
2022-10-23T04:09:56.206Z,8.40
2022-10-23T04:12:25.148Z,8.50
2022-10-23T04:14:53.166Z,9.13
2022-10-23T04:17:21.093Z,8.57
2022-10-23T04:19:50.710Z,8.80
2022-10-23T04:22:18.529Z,8.68
2022-10-23T04:24:48.045Z,8.43
2022-10-23T04:27:19.463Z,8.43
2022-10-23T04:29:49.385Z,8.48
2022-10-23T04:32:17.278Z,7.82
2022-10-23T04:34:45.624Z,7.97
2022-10-23T04:37:13.859Z,8.10
2022-10-23T04:39:41.711Z,8.18
2022-10-23T04:42:15.340Z,8.07
2022-10-23T04:44:43.318Z,7.90
2022-10-23T04:47:12.511Z,7.15
2022-10-23T04:49:52.815Z,7.30
2022-10-23T04:52:43.814Z,7.63
2022-10-23T04:55:31.565Z,7.22
2022-10-23T04:58:14.952Z,7.55
2022-10-23T05:00:44.903Z,7.25
2022-10-23T05:03:17.611Z,7.20
2022-10-23T05:05:45.980Z,7.28
2022-10-23T05:08:45.636Z,7.40
2022-10-23T05:11:38.275Z,6.60
2022-10-23T05:14:10.300Z,6.72
2022-10-23T05:16:40.615Z,5.63
2022-10-23T05:19:11.785Z,6.60
2022-10-23T05:21:41.440Z,6.55
2022-10-23T05:24:11.627Z,6.28
2022-10-23T05:26:40.076Z,6.68
2022-10-23T05:29:10.607Z,5.93
2022-10-23T05:31:39.519Z,6.55
2022-10-23T05:34:13.866Z,6.25
2022-10-23T05:36:45.566Z,6.05
2022-10-23T05:39:14.690Z,6.28
2022-10-23T05:41:42.786Z,5.63
2022-10-23T05:44:11.948Z,6.00
2022-10-23T05:47:09.263Z,5.88
2022-10-23T05:50:03.269Z,5.28
2022-10-23T05:52:51.753Z,5.82
2022-10-23T05:55:47.792Z,5.90
2022-10-23T05:58:36.428Z,5.68
2022-10-23T06:01:25.942Z,5.25
2022-10-23T06:04:02.307Z,5.25
2022-10-23T06:06:52.656Z,5.32
2022-10-23T06:09:20.416Z,4.93
2022-10-23T06:11:50.030Z,4.90
2022-10-23T06:14:21.695Z,4.95
2022-10-23T06:16:53.021Z,5.22
2022-10-23T06:19:21.272Z,5.10
2022-10-23T06:21:54.309Z,5.40
2022-10-23T06:24:28.019Z,5.57
2022-10-23T06:27:01.645Z,4.65
2022-10-23T06:29:41.586Z,5.22
2022-10-23T06:32:10.773Z,5.63
2022-10-23T06:34:39.914Z,5.50
2022-10-23T06:37:09.511Z,5.05
2022-10-23T06:39:47.748Z,5.32
2022-10-23T06:42:37.018Z,4.50
2022-10-23T06:45:23.590Z,4.93
2022-10-23T06:47:55.533Z,4.70
2022-10-23T06:50:30.860Z,5.00
2022-10-23T06:52:59.559Z,5.53
2022-10-23T06:55:30.742Z,5.10
2022-10-23T06:57:58.853Z,4.95
2022-10-23T07:00:26.924Z,5.70
2022-10-23T07:02:57.152Z,5.22
2022-10-23T07:05:25.070Z,4.60
2022-10-23T07:07:53.383Z,4.65
2022-10-23T07:10:26.654Z,4.88
2022-10-23T07:13:01.116Z,4.50
2022-10-23T07:15:52.725Z,5.22
2022-10-23T07:18:26.823Z,4.70
2022-10-23T07:21:13.370Z,4.93
2022-10-23T07:23:42.048Z,4.53
2022-10-23T07:26:14.302Z,4.80
2022-10-23T07:28:43.891Z,4.70
2022-10-23T07:31:14.185Z,5.15
2022-10-23T07:34:07.532Z,4.35
2022-10-23T07:36:35.543Z,4.20
2022-10-23T07:39:03.638Z,4.03
2022-10-23T07:41:32.535Z,4.55
2022-10-23T07:44:00.387Z,4.50
2022-10-23T07:46:31.287Z,4.93
2022-10-23T07:48:59.078Z,4.30
2022-10-23T07:51:28.384Z,4.20
2022-10-23T07:54:00.887Z,4.18
2022-10-23T07:56:47.392Z,4.15
2022-10-23T07:59:23.502Z,4.60
2022-10-23T08:01:56.550Z,4.30
2022-10-23T08:04:31.395Z,4.90
2022-10-23T08:07:12.530Z,4.43
2022-10-23T08:09:43.670Z,4.20
2022-10-23T08:12:11.533Z,4.18
2022-10-23T08:14:39.582Z,4.55
2022-10-23T08:17:09.711Z,4.30
2022-10-23T08:20:16.059Z,4.80
2022-10-23T08:22:47.264Z,4.45
2022-10-23T08:25:24.964Z,3.92
2022-10-23T08:27:54.373Z,4.25
2022-10-23T08:30:22.602Z,4.10
2022-10-23T08:32:50.564Z,3.80
2022-10-23T08:35:19.233Z,4.28
2022-10-23T08:37:48.340Z,4.20
2022-10-23T08:40:18.171Z,3.95
2022-10-23T08:43:13.552Z,3.83
2022-10-23T08:45:59.604Z,3.70
2022-10-23T08:49:10.294Z,3.65
2022-10-23T08:51:58.628Z,4.15
2022-10-23T08:54:35.140Z,3.83
2022-10-23T08:57:11.169Z,4.00
2022-10-23T08:59:45.060Z,3.88
2022-10-23T09:02:18.699Z,3.92
2022-10-23T09:04:49.218Z,3.58
2022-10-23T09:07:26.428Z,3.80
2022-10-23T09:10:11.592Z,3.67
2022-10-23T09:12:39.819Z,3.65
2022-10-23T09:15:28.392Z,4.35
2022-10-23T09:18:00.295Z,4.20
2022-10-23T09:20:34.065Z,4.70
2022-10-23T09:23:04.312Z,3.70
2022-10-23T09:25:39.036Z,3.80
2022-10-23T09:28:07.239Z,4.22
2022-10-23T09:30:37.314Z,4.18
2022-10-23T09:33:16.014Z,4.05
2022-10-23T09:35:54.823Z,4.10
2022-10-23T09:38:31.037Z,3.58
2022-10-23T09:41:03.006Z,3.55
2022-10-23T09:43:30.856Z,4.25
2022-10-23T09:46:06.420Z,4.22
2022-10-23T09:48:36.311Z,3.97
2022-10-23T09:51:14.838Z,3.90
2022-10-23T09:53:51.502Z,3.80
2022-10-23T09:56:28.638Z,4.15
2022-10-23T09:58:59.008Z,4.13
2022-10-23T10:01:29.063Z,4.10
2022-10-23T10:04:08.677Z,3.65
2022-10-23T10:06:36.560Z,3.55
2022-10-23T10:09:08.852Z,3.45
2022-10-23T10:11:45.414Z,3.88
2022-10-23T10:14:32.229Z,4.10
2022-10-23T10:17:02.837Z,3.67
2022-10-23T10:19:40.291Z,3.58
2022-10-23T10:22:20.061Z,3.63
2022-10-23T10:24:57.277Z,4.00
2022-10-23T10:27:42.025Z,3.87
2022-10-23T10:30:15.358Z,3.60
2022-10-23T10:32:51.237Z,3.67
2022-10-23T10:35:34.714Z,3.78
2022-10-23T10:38:27.196Z,4.20
2022-10-23T10:41:15.387Z,4.20
2022-10-23T10:43:52.630Z,4.32
2022-10-23T10:46:31.455Z,3.85
2022-10-23T10:49:02.964Z,3.83
2022-10-23T10:51:43.902Z,3.53
2022-10-23T10:54:23.143Z,3.93
2022-10-23T10:56:51.215Z,3.78
2022-10-23T10:59:25.445Z,3.95
2022-10-23T11:01:58.999Z,4.03
2022-10-23T11:04:35.194Z,3.75
2022-10-23T11:07:08.387Z,3.60
2022-10-23T11:09:36.225Z,4.00
2022-10-23T11:12:04.207Z,3.97
2022-10-23T11:14:35.436Z,3.85
2022-10-23T11:17:10.080Z,4.03
2022-10-23T11:19:44.996Z,3.97
2022-10-23T11:22:22.868Z,4.13
2022-10-23T11:25:07.727Z,4.20
2022-10-23T11:27:49.319Z,4.68
2022-10-23T11:30:25.017Z,4.20
2022-10-23T11:33:09.553Z,4.13
2022-10-23T11:35:49.707Z,3.85
2022-10-23T11:38:19.811Z,3.80
2022-10-23T11:43:27.983Z,4.22
2022-10-23T11:45:57.481Z,3.83
2022-10-23T11:48:37.935Z,3.65
2022-10-23T11:51:06.686Z,4.20
2022-10-23T11:53:41.425Z,4.28
2022-10-23T11:56:34.166Z,3.70
2022-10-23T11:59:23.858Z,4.03
2022-10-23T12:01:54.582Z,3.70
2022-10-23T12:04:25.821Z,3.33
2022-10-23T12:06:56.083Z,3.72
2022-10-23T12:09:28.587Z,3.47
2022-10-23T12:12:17.866Z,3.67
2022-10-23T12:14:48.236Z,3.78
2022-10-23T12:17:31.425Z,4.00
2022-10-23T12:20:11.337Z,3.45
2022-10-23T12:22:46.395Z,4.10
2022-10-23T12:25:17.402Z,3.87
2022-10-23T12:27:53.791Z,3.83
2022-10-23T12:30:24.305Z,4.10
2022-10-23T12:33:07.449Z,4.25
2022-10-23T12:36:22.563Z,3.70
2022-10-23T12:38:50.768Z,4.10
2022-10-23T12:41:23.700Z,4.35
2022-10-23T12:43:54.388Z,3.80
2022-10-23T12:46:31.682Z,3.90
2022-10-23T12:49:02.361Z,3.83
2022-10-23T12:51:35.632Z,3.43
2022-10-23T12:54:04.479Z,3.63
2022-10-23T12:56:36.774Z,3.83
2022-10-23T12:59:06.370Z,4.65
2022-10-23T13:01:36.383Z,3.85
2022-10-23T13:04:14.543Z,4.13
2022-10-23T13:06:42.945Z,4.28
2022-10-23T13:09:21.022Z,3.63
2022-10-23T13:12:03.215Z,3.88
2022-10-23T13:14:34.309Z,4.00
2022-10-23T13:17:04.042Z,3.70
2022-10-23T13:19:33.653Z,3.42
2022-10-23T13:22:02.278Z,3.60
2022-10-23T13:24:34.145Z,3.35
2022-10-23T13:27:02.063Z,3.55
2022-10-23T13:29:32.351Z,3.57
2022-10-23T13:32:11.029Z,2.80
2022-10-23T13:34:40.205Z,3.17
2022-10-23T13:37:24.921Z,3.42
2022-10-23T13:40:02.751Z,2.80
2022-10-23T13:42:30.597Z,2.83
2022-10-23T13:44:58.831Z,3.00
2022-10-23T13:47:26.580Z,2.90
2022-10-23T13:49:58.712Z,2.83
2022-10-23T13:52:26.492Z,2.90
2022-10-23T13:54:54.365Z,3.13
2022-10-23T13:57:22.109Z,2.95
2022-10-23T13:59:49.981Z,2.92
2022-10-23T14:02:21.294Z,3.17
2022-10-23T14:04:49.677Z,2.67
2022-10-23T14:07:19.067Z,2.77
2022-10-23T14:09:47.475Z,2.90
2022-10-23T14:12:16.960Z,2.42
2022-10-23T14:14:44.881Z,3.00
2022-10-23T14:17:12.669Z,3.47
2022-10-23T14:19:40.428Z,2.93
2022-10-23T14:22:08.233Z,3.15
2022-10-23T14:24:37.797Z,2.83
2022-10-23T14:27:05.913Z,3.03
2022-10-23T14:29:33.829Z,3.00
2022-10-23T14:32:01.934Z,2.87
2022-10-23T14:34:32.609Z,2.75
2022-10-23T14:37:08.880Z,2.72
2022-10-23T14:39:40.432Z,2.78
2022-10-23T14:42:12.420Z,2.92
2022-10-23T14:44:43.526Z,3.27
2022-10-23T14:47:24.633Z,2.95
2022-10-23T14:50:02.391Z,2.92
2022-10-23T14:52:36.379Z,2.72
2022-10-23T14:55:13.740Z,2.75
2022-10-23T14:57:48.763Z,2.60
2022-10-23T15:00:18.208Z,2.55
2022-10-23T15:02:50.037Z,2.90
2022-10-23T15:05:20.287Z,2.75
2022-10-23T15:07:52.661Z,2.50
2022-10-23T15:10:22.933Z,2.47
2022-10-23T15:12:52.025Z,3.00
2022-10-23T15:15:25.178Z,2.50
2022-10-23T15:18:19.238Z,2.60
2022-10-23T15:20:56.022Z,2.80
2022-10-23T15:23:25.708Z,2.63
2022-10-23T15:25:59.545Z,2.50
2022-10-23T15:28:27.716Z,2.70
2022-10-23T15:30:56.081Z,2.95
2022-10-23T15:33:24.964Z,2.70
2022-10-23T15:35:53.546Z,3.10
2022-10-23T15:38:22.452Z,2.85
2022-10-23T15:40:50.870Z,2.95
2022-10-23T15:43:20.260Z,2.42
2022-10-23T15:45:48.062Z,3.33
2022-10-23T15:48:16.000Z,2.67
2022-10-23T15:50:43.721Z,2.47
2022-10-23T15:53:11.395Z,2.70
2022-10-23T15:55:39.113Z,2.80
2022-10-23T15:58:07.053Z,2.70
2022-10-23T16:00:36.670Z,2.80
2022-10-23T16:03:05.216Z,2.70
2022-10-23T16:05:32.956Z,2.65
2022-10-23T16:08:00.758Z,3.22
2022-10-23T16:10:28.778Z,2.92
2022-10-23T16:12:56.541Z,3.20
2022-10-23T16:15:24.378Z,2.65
2022-10-23T16:17:54.184Z,2.35
2022-10-23T16:20:22.051Z,2.65
2022-10-23T16:22:49.808Z,3.10
2022-10-23T16:25:17.629Z,2.93
2022-10-23T16:27:46.371Z,2.83
2022-10-23T16:30:16.218Z,2.92
2022-10-23T16:32:44.428Z,2.80
2022-10-23T16:35:13.428Z,2.80
2022-10-23T16:37:55.496Z,2.87
2022-10-23T16:40:23.936Z,4.55
2022-10-23T16:43:10.505Z,3.55
2022-10-23T16:45:42.522Z,3.30
2022-10-23T16:48:10.236Z,3.38
2022-10-23T16:50:41.027Z,3.17
2022-10-23T16:53:08.933Z,3.25
2022-10-23T16:55:40.834Z,4.47
2022-10-23T16:58:08.621Z,4.20
2022-10-23T17:00:36.330Z,3.63
2022-10-23T17:03:05.464Z,3.33
2022-10-23T17:05:35.188Z,5.00
2022-10-23T17:08:04.299Z,5.70
2022-10-23T17:10:32.046Z,4.70
2022-10-23T17:12:59.770Z,3.75
2022-10-23T17:15:27.469Z,3.50
2022-10-23T17:17:55.242Z,3.90
2022-10-23T17:20:23.102Z,4.05
2022-10-23T17:22:50.781Z,5.60
2022-10-23T17:25:20.184Z,4.68
2022-10-23T17:27:47.906Z,3.80
2022-10-23T17:30:15.724Z,3.65
2022-10-23T17:32:43.746Z,3.58
2022-10-23T17:35:11.964Z,3.72
2022-10-23T17:37:39.682Z,3.50
2022-10-23T17:40:08.345Z,3.47
2022-10-23T17:42:37.395Z,3.47
2022-10-23T17:45:05.655Z,3.30
2022-10-23T17:47:33.567Z,3.30
2022-10-23T17:50:01.468Z,4.07
2022-10-23T17:52:29.336Z,3.47
2022-10-23T17:54:57.087Z,3.60
2022-10-23T17:57:24.880Z,3.60
2022-10-23T17:59:53.987Z,3.80
2022-10-23T18:02:21.837Z,3.92
2022-10-23T18:04:49.653Z,4.20
2022-10-23T18:07:17.417Z,3.67
2022-10-23T18:09:45.901Z,3.20
2022-10-23T18:12:13.689Z,2.97
2022-10-23T18:14:41.505Z,3.17
2022-10-23T18:17:10.727Z,3.50
2022-10-23T18:19:38.481Z,4.28
2022-10-23T18:22:06.420Z,4.25
2022-10-23T18:24:34.365Z,4.13
2022-10-23T18:27:02.280Z,4.15
2022-10-23T18:29:30.074Z,3.70
2022-10-23T18:31:57.900Z,3.80
2022-10-23T18:34:27.169Z,4.10
2022-10-23T18:36:55.860Z,3.53
2022-10-23T18:39:26.476Z,4.07
2022-10-23T18:41:57.383Z,4.30
2022-10-23T18:44:26.941Z,4.13
2022-10-23T18:46:56.757Z,3.47
2022-10-23T18:49:24.775Z,4.47
2022-10-23T18:51:54.007Z,3.70
2022-10-23T18:54:22.577Z,3.33
2022-10-23T18:56:50.453Z,3.13
2022-10-23T18:59:20.273Z,2.97
2022-10-23T19:01:48.443Z,3.83
2022-10-23T19:04:17.900Z,3.05
2022-10-23T19:06:46.675Z,3.07
2022-10-23T19:09:16.082Z,3.10
2022-10-23T19:11:45.299Z,3.05
2022-10-23T19:14:13.672Z,3.20
2022-10-23T19:16:45.514Z,3.42
2022-10-23T19:19:18.807Z,3.50
2022-10-23T19:21:47.629Z,3.25
2022-10-23T19:24:20.152Z,3.00
2022-10-23T19:26:48.606Z,2.85
2022-10-23T19:29:20.279Z,2.80
2022-10-23T19:31:49.849Z,2.37
2022-10-23T19:34:19.908Z,2.80
2022-10-23T19:36:47.950Z,2.90
2022-10-23T19:39:17.502Z,2.63
2022-10-23T19:41:45.456Z,2.88
2022-10-23T19:44:14.597Z,3.03
2022-10-23T19:46:42.716Z,3.65
2022-10-23T19:49:11.448Z,3.40
2022-10-23T19:51:39.496Z,3.60
2022-10-23T19:54:09.658Z,4.18
2022-10-23T19:56:39.015Z,3.70
2022-10-23T19:59:07.006Z,3.95
2022-10-23T20:01:36.117Z,3.20
2022-10-23T20:04:03.963Z,3.50
2022-10-23T20:06:34.543Z,3.50
2022-10-23T20:09:02.912Z,3.23
2022-10-23T20:11:32.146Z,3.17
2022-10-23T20:14:01.148Z,3.00
2022-10-23T20:16:31.004Z,3.15
2022-10-23T20:18:59.521Z,3.15
2022-10-23T20:21:27.334Z,3.37
2022-10-23T20:23:57.027Z,3.03
2022-10-23T20:26:24.835Z,3.13
2022-10-23T20:28:54.918Z,2.95
2022-10-23T20:31:25.953Z,3.20
2022-10-23T20:33:54.170Z,2.87
2022-10-23T20:36:25.075Z,2.90
2022-10-23T20:38:53.050Z,3.15
2022-10-23T20:41:21.453Z,3.22
2022-10-23T20:43:49.449Z,2.90
2022-10-23T20:46:17.634Z,3.00
2022-10-23T20:48:47.072Z,3.00
2022-10-23T20:51:16.755Z,3.92
2022-10-23T20:53:47.712Z,3.00
2022-10-23T20:56:17.485Z,3.17
2022-10-23T20:58:45.724Z,3.07
2022-10-23T21:01:16.271Z,3.10
2022-10-23T21:03:49.848Z,2.58
2022-10-23T21:06:18.892Z,3.20
2022-10-23T21:08:47.313Z,2.40
2022-10-23T21:11:16.631Z,2.80
2022-10-23T21:13:45.753Z,2.58
2022-10-23T21:16:15.200Z,2.60
2022-10-23T21:18:47.039Z,2.65
2022-10-23T21:21:19.205Z,2.30
2022-10-23T21:23:48.240Z,3.10
2022-10-23T21:26:19.391Z,2.88
2022-10-23T21:28:56.411Z,3.00
2022-10-23T21:31:36.250Z,3.15
2022-10-23T21:34:05.305Z,4.22
2022-10-23T21:36:48.264Z,2.97
2022-10-23T21:39:22.483Z,3.00
2022-10-23T21:41:50.395Z,2.58
2022-10-23T21:44:18.057Z,2.72
2022-10-23T21:46:45.715Z,2.60
2022-10-23T21:49:13.640Z,3.30
2022-10-23T21:51:42.710Z,2.85
2022-10-23T21:54:14.718Z,2.67
2022-10-23T21:56:45.049Z,3.10
2022-10-23T21:59:17.057Z,2.72
2022-10-23T22:01:49.885Z,2.53
2022-10-23T22:04:19.952Z,2.70
2022-10-23T22:06:50.709Z,2.40
2022-10-23T22:09:20.400Z,2.50
2022-10-23T22:11:49.597Z,2.42
2022-10-23T22:14:20.733Z,2.43
2022-10-23T22:16:49.324Z,2.40
2022-10-23T22:19:18.641Z,2.35
2022-10-23T22:21:46.823Z,2.53
2022-10-23T22:24:17.439Z,2.42
2022-10-23T22:26:46.887Z,2.90
2022-10-23T22:29:17.693Z,2.38
2022-10-23T22:31:48.873Z,2.35
2022-10-23T22:34:27.162Z,2.05
2022-10-23T22:37:08.948Z,2.58
2022-10-23T22:39:51.166Z,2.50
2022-10-23T22:42:19.081Z,2.40
2022-10-23T22:44:47.351Z,2.67
2022-10-23T22:47:15.452Z,2.38
2022-10-23T22:49:43.097Z,2.75
2022-10-23T22:52:10.837Z,2.67
2022-10-23T22:54:51.446Z,2.75
2022-10-23T22:57:32.623Z,3.15
2022-10-23T23:00:01.480Z,2.88
2022-10-23T23:02:34.860Z,2.70
2022-10-23T23:05:07.385Z,2.40
2022-10-23T23:07:40.671Z,2.22
2022-10-23T23:10:10.744Z,2.53
2022-10-23T23:12:38.499Z,2.10
2022-10-23T23:15:07.034Z,2.50
2022-10-23T23:17:34.758Z,1.87
2022-10-23T23:20:02.503Z,1.92
2022-10-23T23:22:30.235Z,1.90
2022-10-23T23:24:57.932Z,1.70
2022-10-23T23:27:27.557Z,1.90
2022-10-23T23:29:57.899Z,1.90
2022-10-23T23:32:25.680Z,1.85
2022-10-23T23:34:53.428Z,1.67
2022-10-23T23:37:21.097Z,1.75
2022-10-23T23:39:48.956Z,1.38
2022-10-23T23:42:16.900Z,1.40
2022-10-23T23:44:55.965Z,1.33
2022-10-23T23:47:30.932Z,1.30
2022-10-23T23:49:58.665Z,1.33
2022-10-23T23:52:26.408Z,1.17
2022-10-23T23:54:54.274Z,1.30
2022-10-23T23:57:21.960Z,1.40
2022-10-23T23:59:51.757Z,1.13
